sensor_id;sensor_type;location;lat;lon;timestamp;P1;durP1;ratioP1;P2;durP2;ratioP2
69008;SDS011;56065;52.472;13.380;2023-12-04T00:00:34;25.00;;;9.37;;
69008;SDS011;56065;52.472;13.380;2023-12-04T00:03:00;26.90;;;9.50;;
69008;SDS011;56065;52.472;13.380;2023-12-04T00:05:25;23.50;;;8.40;;
69008;SDS011;56065;52.472;13.380;2023-12-04T00:07:51;28.20;;;9.00;;
69008;SDS011;56065;52.472;13.380;2023-12-04T00:10:16;29.03;;;9.90;;
69008;SDS011;56065;52.472;13.380;2023-12-04T00:12:41;25.80;;;8.80;;
69008;SDS011;56065;52.472;13.380;2023-12-04T00:15:07;23.03;;;7.60;;
69008;SDS011;56065;52.472;13.380;2023-12-04T00:17:33;29.45;;;10.75;;
69008;SDS011;56065;52.472;13.380;2023-12-04T00:19:58;28.30;;;9.53;;
69008;SDS011;56065;52.472;13.380;2023-12-04T00:22:24;26.95;;;8.75;;
69008;SDS011;56065;52.472;13.380;2023-12-04T00:24:49;23.88;;;8.35;;
69008;SDS011;56065;52.472;13.380;2023-12-04T00:27:14;35.50;;;9.87;;
69008;SDS011;56065;52.472;13.380;2023-12-04T00:29:40;31.47;;;10.63;;
69008;SDS011;56065;52.472;13.380;2023-12-04T00:32:05;25.40;;;9.10;;
69008;SDS011;56065;52.472;13.380;2023-12-04T00:34:30;24.83;;;8.37;;
69008;SDS011;56065;52.472;13.380;2023-12-04T00:36:56;23.67;;;8.20;;
69008;SDS011;56065;52.472;13.380;2023-12-04T00:39:21;30.08;;;10.43;;
69008;SDS011;56065;52.472;13.380;2023-12-04T00:41:47;31.70;;;10.73;;
69008;SDS011;56065;52.472;13.380;2023-12-04T00:44:12;29.13;;;11.30;;
69008;SDS011;56065;52.472;13.380;2023-12-04T00:46:37;33.40;;;10.50;;
69008;SDS011;56065;52.472;13.380;2023-12-04T00:49:03;36.07;;;12.37;;
69008;SDS011;56065;52.472;13.380;2023-12-04T00:51:28;32.03;;;11.47;;
69008;SDS011;56065;52.472;13.380;2023-12-04T00:53:53;30.20;;;10.50;;
69008;SDS011;56065;52.472;13.380;2023-12-04T00:56:19;32.55;;;10.45;;
69008;SDS011;56065;52.472;13.380;2023-12-04T00:58:45;35.43;;;11.63;;
69008;SDS011;56065;52.472;13.380;2023-12-04T01:01:11;33.67;;;10.65;;
69008;SDS011;56065;52.472;13.380;2023-12-04T01:03:37;33.37;;;10.33;;
69008;SDS011;56065;52.472;13.380;2023-12-04T01:06:03;31.25;;;10.00;;
69008;SDS011;56065;52.472;13.380;2023-12-04T01:08:28;33.27;;;11.17;;
69008;SDS011;56065;52.472;13.380;2023-12-04T01:10:53;35.47;;;10.97;;
69008;SDS011;56065;52.472;13.380;2023-12-04T01:13:19;31.67;;;10.47;;
69008;SDS011;56065;52.472;13.380;2023-12-04T01:15:44;34.23;;;11.47;;
69008;SDS011;56065;52.472;13.380;2023-12-04T01:18:11;34.47;;;11.93;;
69008;SDS011;56065;52.472;13.380;2023-12-04T01:20:36;27.90;;;9.20;;
69008;SDS011;56065;52.472;13.380;2023-12-04T01:23:02;32.27;;;10.87;;
69008;SDS011;56065;52.472;13.380;2023-12-04T01:25:27;29.92;;;9.73;;
69008;SDS011;56065;52.472;13.380;2023-12-04T01:27:52;28.45;;;9.85;;
69008;SDS011;56065;52.472;13.380;2023-12-04T01:30:18;33.50;;;10.90;;
69008;SDS011;56065;52.472;13.380;2023-12-04T01:32:43;30.93;;;10.90;;
69008;SDS011;56065;52.472;13.380;2023-12-04T01:35:09;31.70;;;11.00;;
69008;SDS011;56065;52.472;13.380;2023-12-04T01:37:34;34.83;;;11.30;;
69008;SDS011;56065;52.472;13.380;2023-12-04T01:39:59;30.20;;;10.27;;
69008;SDS011;56065;52.472;13.380;2023-12-04T01:42:25;31.27;;;10.15;;
69008;SDS011;56065;52.472;13.380;2023-12-04T01:44:50;29.88;;;10.88;;
69008;SDS011;56065;52.472;13.380;2023-12-04T01:47:15;34.13;;;11.47;;
69008;SDS011;56065;52.472;13.380;2023-12-04T01:49:42;32.22;;;9.70;;
69008;SDS011;56065;52.472;13.380;2023-12-04T01:52:08;31.63;;;10.88;;
69008;SDS011;56065;52.472;13.380;2023-12-04T01:54:34;32.60;;;11.05;;
69008;SDS011;56065;52.472;13.380;2023-12-04T01:57:01;30.90;;;11.63;;
69008;SDS011;56065;52.472;13.380;2023-12-04T01:59:28;33.10;;;10.75;;
69008;SDS011;56065;52.472;13.380;2023-12-04T02:01:53;36.47;;;10.40;;
69008;SDS011;56065;52.472;13.380;2023-12-04T02:04:18;28.77;;;10.25;;
69008;SDS011;56065;52.472;13.380;2023-12-04T02:06:44;29.83;;;9.53;;
69008;SDS011;56065;52.472;13.380;2023-12-04T02:09:09;31.27;;;9.50;;
69008;SDS011;56065;52.472;13.380;2023-12-04T02:11:37;37.97;;;11.77;;
69008;SDS011;56065;52.472;13.380;2023-12-04T02:14:04;36.97;;;11.07;;
69008;SDS011;56065;52.472;13.380;2023-12-04T02:16:30;36.83;;;10.15;;
69008;SDS011;56065;52.472;13.380;2023-12-04T02:18:57;31.35;;;10.43;;
69008;SDS011;56065;52.472;13.380;2023-12-04T02:21:22;33.47;;;10.88;;
69008;SDS011;56065;52.472;13.380;2023-12-04T02:23:49;34.80;;;10.77;;
69008;SDS011;56065;52.472;13.380;2023-12-04T02:26:15;37.03;;;10.90;;
69008;SDS011;56065;52.472;13.380;2023-12-04T02:28:44;31.73;;;11.13;;
69008;SDS011;56065;52.472;13.380;2023-12-04T02:31:15;30.55;;;10.45;;
69008;SDS011;56065;52.472;13.380;2023-12-04T02:33:42;31.08;;;11.43;;
69008;SDS011;56065;52.472;13.380;2023-12-04T02:36:11;33.63;;;11.18;;
69008;SDS011;56065;52.472;13.380;2023-12-04T02:38:38;33.43;;;11.23;;
69008;SDS011;56065;52.472;13.380;2023-12-04T02:41:03;33.95;;;11.55;;
69008;SDS011;56065;52.472;13.380;2023-12-04T02:43:29;34.57;;;10.70;;
69008;SDS011;56065;52.472;13.380;2023-12-04T02:45:54;37.77;;;11.37;;
69008;SDS011;56065;52.472;13.380;2023-12-04T02:48:20;33.78;;;11.68;;
69008;SDS011;56065;52.472;13.380;2023-12-04T02:50:45;27.87;;;10.00;;
69008;SDS011;56065;52.472;13.380;2023-12-04T02:53:10;32.87;;;10.13;;
69008;SDS011;56065;52.472;13.380;2023-12-04T02:55:36;33.50;;;11.63;;
69008;SDS011;56065;52.472;13.380;2023-12-04T02:58:01;32.67;;;10.57;;
69008;SDS011;56065;52.472;13.380;2023-12-04T03:00:26;36.17;;;11.47;;
69008;SDS011;56065;52.472;13.380;2023-12-04T03:02:52;30.40;;;10.33;;
69008;SDS011;56065;52.472;13.380;2023-12-04T03:05:17;35.87;;;11.67;;
69008;SDS011;56065;52.472;13.380;2023-12-04T03:07:44;36.08;;;11.30;;
69008;SDS011;56065;52.472;13.380;2023-12-04T03:10:10;32.55;;;11.15;;
69008;SDS011;56065;52.472;13.380;2023-12-04T03:12:36;38.43;;;12.27;;
69008;SDS011;56065;52.472;13.380;2023-12-04T03:15:01;33.10;;;10.67;;
69008;SDS011;56065;52.472;13.380;2023-12-04T03:17:27;33.85;;;10.90;;
69008;SDS011;56065;52.472;13.380;2023-12-04T03:19:52;37.40;;;12.20;;
69008;SDS011;56065;52.472;13.380;2023-12-04T03:22:17;39.07;;;12.03;;
69008;SDS011;56065;52.472;13.380;2023-12-04T03:24:42;34.50;;;11.90;;
69008;SDS011;56065;52.472;13.380;2023-12-04T03:27:08;33.47;;;10.00;;
69008;SDS011;56065;52.472;13.380;2023-12-04T03:29:33;31.27;;;10.47;;
69008;SDS011;56065;52.472;13.380;2023-12-04T03:31:58;30.43;;;9.97;;
69008;SDS011;56065;52.472;13.380;2023-12-04T03:34:24;29.40;;;9.97;;
69008;SDS011;56065;52.472;13.380;2023-12-04T03:36:49;29.90;;;10.15;;
69008;SDS011;56065;52.472;13.380;2023-12-04T03:39:15;35.72;;;10.75;;
69008;SDS011;56065;52.472;13.380;2023-12-04T03:41:40;36.70;;;11.80;;
69008;SDS011;56065;52.472;13.380;2023-12-04T03:44:05;30.77;;;11.00;;
69008;SDS011;56065;52.472;13.380;2023-12-04T03:46:31;30.17;;;10.13;;
69008;SDS011;56065;52.472;13.380;2023-12-04T03:48:56;33.00;;;10.10;;
69008;SDS011;56065;52.472;13.380;2023-12-04T03:51:21;30.13;;;10.23;;
69008;SDS011;56065;52.472;13.380;2023-12-04T03:53:47;33.30;;;10.05;;
69008;SDS011;56065;52.472;13.380;2023-12-04T03:56:12;31.80;;;10.60;;
69008;SDS011;56065;52.472;13.380;2023-12-04T03:58:37;29.30;;;9.30;;
69008;SDS011;56065;52.472;13.380;2023-12-04T04:01:03;30.80;;;10.23;;
69008;SDS011;56065;52.472;13.380;2023-12-04T04:03:29;35.47;;;11.38;;
69008;SDS011;56065;52.472;13.380;2023-12-04T04:05:55;28.60;;;10.67;;
69008;SDS011;56065;52.472;13.380;2023-12-04T04:08:20;31.87;;;10.90;;
69008;SDS011;56065;52.472;13.380;2023-12-04T04:10:45;33.50;;;10.35;;
69008;SDS011;56065;52.472;13.380;2023-12-04T04:13:10;29.35;;;10.25;;
69008;SDS011;56065;52.472;13.380;2023-12-04T04:15:36;33.17;;;10.17;;
69008;SDS011;56065;52.472;13.380;2023-12-04T04:18:01;31.00;;;10.73;;
69008;SDS011;56065;52.472;13.380;2023-12-04T04:20:27;34.60;;;11.40;;
69008;SDS011;56065;52.472;13.380;2023-12-04T04:22:52;33.80;;;11.63;;
69008;SDS011;56065;52.472;13.380;2023-12-04T04:25:18;29.45;;;10.15;;
69008;SDS011;56065;52.472;13.380;2023-12-04T04:27:46;33.50;;;10.38;;
69008;SDS011;56065;52.472;13.380;2023-12-04T04:30:11;33.53;;;11.20;;
69008;SDS011;56065;52.472;13.380;2023-12-04T04:32:38;30.88;;;10.02;;
69008;SDS011;56065;52.472;13.380;2023-12-04T04:35:04;34.00;;;11.10;;
69008;SDS011;56065;52.472;13.380;2023-12-04T04:37:29;31.70;;;9.47;;
69008;SDS011;56065;52.472;13.380;2023-12-04T04:39:54;27.20;;;9.90;;
69008;SDS011;56065;52.472;13.380;2023-12-04T04:42:21;27.20;;;10.10;;
69008;SDS011;56065;52.472;13.380;2023-12-04T04:44:47;28.52;;;10.27;;
69008;SDS011;56065;52.472;13.380;2023-12-04T04:47:12;30.30;;;9.87;;
69008;SDS011;56065;52.472;13.380;2023-12-04T04:49:37;32.10;;;10.33;;
69008;SDS011;56065;52.472;13.380;2023-12-04T04:52:03;24.98;;;9.57;;
69008;SDS011;56065;52.472;13.380;2023-12-04T04:54:30;27.38;;;9.70;;
69008;SDS011;56065;52.472;13.380;2023-12-04T04:56:57;29.00;;;9.75;;
69008;SDS011;56065;52.472;13.380;2023-12-04T04:59:22;30.20;;;9.93;;
69008;SDS011;56065;52.472;13.380;2023-12-04T05:01:48;30.30;;;10.10;;
69008;SDS011;56065;52.472;13.380;2023-12-04T05:04:13;25.30;;;8.67;;
69008;SDS011;56065;52.472;13.380;2023-12-04T05:06:38;29.17;;;9.90;;
69008;SDS011;56065;52.472;13.380;2023-12-04T05:09:04;31.48;;;10.30;;
69008;SDS011;56065;52.472;13.380;2023-12-04T05:11:29;26.63;;;10.10;;
69008;SDS011;56065;52.472;13.380;2023-12-04T05:13:55;30.97;;;9.63;;
69008;SDS011;56065;52.472;13.380;2023-12-04T05:16:20;29.00;;;9.27;;
69008;SDS011;56065;52.472;13.380;2023-12-04T05:18:45;29.85;;;9.35;;
69008;SDS011;56065;52.472;13.380;2023-12-04T05:21:11;28.77;;;9.80;;
69008;SDS011;56065;52.472;13.380;2023-12-04T05:23:40;29.67;;;9.40;;
69008;SDS011;56065;52.472;13.380;2023-12-04T05:26:06;29.52;;;9.95;;
69008;SDS011;56065;52.472;13.380;2023-12-04T05:28:32;27.75;;;9.82;;
69008;SDS011;56065;52.472;13.380;2023-12-04T05:30:57;27.55;;;8.20;;
69008;SDS011;56065;52.472;13.380;2023-12-04T05:33:24;26.10;;;9.97;;
69008;SDS011;56065;52.472;13.380;2023-12-04T05:35:49;27.55;;;9.10;;
69008;SDS011;56065;52.472;13.380;2023-12-04T05:38:18;25.37;;;7.93;;
69008;SDS011;56065;52.472;13.380;2023-12-04T05:40:43;32.33;;;10.30;;
69008;SDS011;56065;52.472;13.380;2023-12-04T05:43:09;26.57;;;9.70;;
69008;SDS011;56065;52.472;13.380;2023-12-04T05:45:34;30.40;;;9.43;;
69008;SDS011;56065;52.472;13.380;2023-12-04T05:48:00;28.95;;;10.13;;
69008;SDS011;56065;52.472;13.380;2023-12-04T05:50:25;31.60;;;10.27;;
69008;SDS011;56065;52.472;13.380;2023-12-04T05:52:51;25.70;;;9.57;;
69008;SDS011;56065;52.472;13.380;2023-12-04T05:55:16;27.20;;;9.47;;
69008;SDS011;56065;52.472;13.380;2023-12-04T05:57:41;30.98;;;10.35;;
69008;SDS011;56065;52.472;13.380;2023-12-04T06:00:08;28.13;;;10.60;;
69008;SDS011;56065;52.472;13.380;2023-12-04T06:02:43;32.45;;;11.27;;
69008;SDS011;56065;52.472;13.380;2023-12-04T06:05:10;28.73;;;10.00;;
69008;SDS011;56065;52.472;13.380;2023-12-04T06:07:37;30.85;;;10.80;;
69008;SDS011;56065;52.472;13.380;2023-12-04T06:10:03;30.58;;;10.00;;
69008;SDS011;56065;52.472;13.380;2023-12-04T06:12:29;27.50;;;9.27;;
69008;SDS011;56065;52.472;13.380;2023-12-04T06:14:55;32.53;;;11.63;;
69008;SDS011;56065;52.472;13.380;2023-12-04T06:17:20;27.80;;;10.03;;
69008;SDS011;56065;52.472;13.380;2023-12-04T06:19:46;31.07;;;10.73;;
69008;SDS011;56065;52.472;13.380;2023-12-04T06:22:12;33.63;;;10.43;;
69008;SDS011;56065;52.472;13.380;2023-12-04T06:24:37;30.20;;;10.00;;
69008;SDS011;56065;52.472;13.380;2023-12-04T06:27:03;26.48;;;9.18;;
69008;SDS011;56065;52.472;13.380;2023-12-04T06:29:31;32.00;;;10.57;;
69008;SDS011;56065;52.472;13.380;2023-12-04T06:31:57;30.42;;;10.90;;
69008;SDS011;56065;52.472;13.380;2023-12-04T06:34:23;26.27;;;9.98;;
69008;SDS011;56065;52.472;13.380;2023-12-04T06:36:49;26.95;;;9.48;;
69008;SDS011;56065;52.472;13.380;2023-12-04T06:39:14;28.10;;;10.57;;
69008;SDS011;56065;52.472;13.380;2023-12-04T06:41:42;29.88;;;10.10;;
69008;SDS011;56065;52.472;13.380;2023-12-04T06:44:08;28.88;;;9.07;;
69008;SDS011;56065;52.472;13.380;2023-12-04T06:46:34;27.90;;;9.88;;
69008;SDS011;56065;52.472;13.380;2023-12-04T06:49:02;26.20;;;9.15;;
69008;SDS011;56065;52.472;13.380;2023-12-04T06:51:30;27.65;;;9.05;;
69008;SDS011;56065;52.472;13.380;2023-12-04T06:53:55;33.13;;;10.30;;
69008;SDS011;56065;52.472;13.380;2023-12-04T06:56:20;26.87;;;8.70;;
69008;SDS011;56065;52.472;13.380;2023-12-04T06:58:46;27.43;;;9.93;;
69008;SDS011;56065;52.472;13.380;2023-12-04T07:01:11;30.73;;;10.43;;
69008;SDS011;56065;52.472;13.380;2023-12-04T07:03:36;29.48;;;9.55;;
69008;SDS011;56065;52.472;13.380;2023-12-04T07:06:02;30.90;;;10.07;;
69008;SDS011;56065;52.472;13.380;2023-12-04T07:08:27;32.73;;;9.60;;
69008;SDS011;56065;52.472;13.380;2023-12-04T07:10:52;26.63;;;9.57;;
69008;SDS011;56065;52.472;13.380;2023-12-04T07:13:18;27.33;;;9.43;;
69008;SDS011;56065;52.472;13.380;2023-12-04T07:15:44;28.42;;;9.63;;
69008;SDS011;56065;52.472;13.380;2023-12-04T07:18:09;25.23;;;8.20;;
69008;SDS011;56065;52.472;13.380;2023-12-04T07:20:34;26.67;;;9.37;;
69008;SDS011;56065;52.472;13.380;2023-12-04T07:23:00;25.33;;;8.50;;
69008;SDS011;56065;52.472;13.380;2023-12-04T07:25:26;26.05;;;10.13;;
69008;SDS011;56065;52.472;13.380;2023-12-04T07:27:51;24.80;;;8.30;;
69008;SDS011;56065;52.472;13.380;2023-12-04T07:30:17;25.27;;;8.90;;
69008;SDS011;56065;52.472;13.380;2023-12-04T07:32:42;25.83;;;8.43;;
69008;SDS011;56065;52.472;13.380;2023-12-04T07:35:08;22.97;;;8.40;;
69008;SDS011;56065;52.472;13.380;2023-12-04T07:37:33;23.60;;;8.53;;
69008;SDS011;56065;52.472;13.380;2023-12-04T07:39:58;26.87;;;9.40;;
69008;SDS011;56065;52.472;13.380;2023-12-04T07:42:24;26.33;;;8.47;;
69008;SDS011;56065;52.472;13.380;2023-12-04T07:44:49;26.52;;;9.60;;
69008;SDS011;56065;52.472;13.380;2023-12-04T07:47:15;25.97;;;8.67;;
69008;SDS011;56065;52.472;13.380;2023-12-04T07:49:41;27.02;;;9.48;;
69008;SDS011;56065;52.472;13.380;2023-12-04T07:52:06;22.70;;;8.90;;
69008;SDS011;56065;52.472;13.380;2023-12-04T07:54:32;21.70;;;7.47;;
69008;SDS011;56065;52.472;13.380;2023-12-04T07:56:57;23.88;;;8.25;;
69008;SDS011;56065;52.472;13.380;2023-12-04T07:59:23;24.77;;;9.20;;
69008;SDS011;56065;52.472;13.380;2023-12-04T08:01:48;27.47;;;9.00;;
69008;SDS011;56065;52.472;13.380;2023-12-04T08:04:13;22.87;;;8.90;;
69008;SDS011;56065;52.472;13.380;2023-12-04T08:06:39;21.60;;;8.90;;
69008;SDS011;56065;52.472;13.380;2023-12-04T08:09:04;24.42;;;9.32;;
69008;SDS011;56065;52.472;13.380;2023-12-04T08:11:34;26.63;;;8.63;;
69008;SDS011;56065;52.472;13.380;2023-12-04T08:13:59;23.55;;;8.20;;
69008;SDS011;56065;52.472;13.380;2023-12-04T08:16:25;24.40;;;8.45;;
69008;SDS011;56065;52.472;13.380;2023-12-04T08:18:53;23.73;;;8.30;;
69008;SDS011;56065;52.472;13.380;2023-12-04T08:21:19;23.27;;;8.75;;
69008;SDS011;56065;52.472;13.380;2023-12-04T08:23:44;28.53;;;9.80;;
69008;SDS011;56065;52.472;13.380;2023-12-04T08:26:10;21.63;;;7.80;;
69008;SDS011;56065;52.472;13.380;2023-12-04T08:28:35;23.17;;;8.67;;
69008;SDS011;56065;52.472;13.380;2023-12-04T08:31:02;24.65;;;8.75;;
69008;SDS011;56065;52.472;13.380;2023-12-04T08:33:28;21.83;;;8.55;;
69008;SDS011;56065;52.472;13.380;2023-12-04T08:35:54;20.43;;;7.90;;
69008;SDS011;56065;52.472;13.380;2023-12-04T08:38:19;24.13;;;8.07;;
69008;SDS011;56065;52.472;13.380;2023-12-04T08:40:45;23.27;;;8.33;;
69008;SDS011;56065;52.472;13.380;2023-12-04T08:43:10;22.88;;;8.02;;
69008;SDS011;56065;52.472;13.380;2023-12-04T08:45:35;24.53;;;8.70;;
69008;SDS011;56065;52.472;13.380;2023-12-04T08:48:01;20.93;;;7.67;;
69008;SDS011;56065;52.472;13.380;2023-12-04T08:50:26;22.93;;;8.30;;
69008;SDS011;56065;52.472;13.380;2023-12-04T08:52:51;20.73;;;7.70;;
69008;SDS011;56065;52.472;13.380;2023-12-04T08:55:17;22.43;;;7.40;;
69008;SDS011;56065;52.472;13.380;2023-12-04T08:57:42;25.17;;;8.30;;
69008;SDS011;56065;52.472;13.380;2023-12-04T09:00:08;23.93;;;8.03;;
69008;SDS011;56065;52.472;13.380;2023-12-04T09:02:34;20.38;;;6.78;;
69008;SDS011;56065;52.472;13.380;2023-12-04T09:05:00;20.10;;;7.53;;
69008;SDS011;56065;52.472;13.380;2023-12-04T09:07:26;23.25;;;7.63;;
69008;SDS011;56065;52.472;13.380;2023-12-04T09:09:51;21.20;;;7.73;;
69008;SDS011;56065;52.472;13.380;2023-12-04T09:12:16;20.17;;;7.67;;
69008;SDS011;56065;52.472;13.380;2023-12-04T09:14:42;23.13;;;8.48;;
69008;SDS011;56065;52.472;13.380;2023-12-04T09:17:08;22.30;;;9.07;;
69008;SDS011;56065;52.472;13.380;2023-12-04T09:19:33;20.70;;;6.97;;
69008;SDS011;56065;52.472;13.380;2023-12-04T09:21:58;19.97;;;7.53;;
69008;SDS011;56065;52.472;13.380;2023-12-04T09:24:24;23.07;;;7.90;;
69008;SDS011;56065;52.472;13.380;2023-12-04T09:26:49;21.20;;;7.90;;
69008;SDS011;56065;52.472;13.380;2023-12-04T09:29:15;21.98;;;8.27;;
69008;SDS011;56065;52.472;13.380;2023-12-04T09:31:41;20.65;;;7.28;;
69008;SDS011;56065;52.472;13.380;2023-12-04T09:34:07;20.08;;;7.60;;
69008;SDS011;56065;52.472;13.380;2023-12-04T09:36:33;22.33;;;7.53;;
69008;SDS011;56065;52.472;13.380;2023-12-04T09:38:59;20.98;;;7.95;;
69008;SDS011;56065;52.472;13.380;2023-12-04T09:41:24;20.43;;;7.27;;
69008;SDS011;56065;52.472;13.380;2023-12-04T09:43:49;20.13;;;7.37;;
69008;SDS011;56065;52.472;13.380;2023-12-04T09:46:16;25.50;;;8.35;;
69008;SDS011;56065;52.472;13.380;2023-12-04T09:48:42;21.67;;;7.75;;
69008;SDS011;56065;52.472;13.380;2023-12-04T09:51:09;21.83;;;7.95;;
69008;SDS011;56065;52.472;13.380;2023-12-04T09:53:35;20.13;;;7.30;;
69008;SDS011;56065;52.472;13.380;2023-12-04T09:56:02;21.48;;;7.88;;
69008;SDS011;56065;52.472;13.380;2023-12-04T09:58:28;20.42;;;7.15;;
69008;SDS011;56065;52.472;13.380;2023-12-04T10:00:55;19.33;;;7.35;;
69008;SDS011;56065;52.472;13.380;2023-12-04T10:03:21;20.33;;;6.75;;
69008;SDS011;56065;52.472;13.380;2023-12-04T10:05:47;18.80;;;7.15;;
69008;SDS011;56065;52.472;13.380;2023-12-04T10:08:13;22.60;;;8.10;;
69008;SDS011;56065;52.472;13.380;2023-12-04T10:10:39;21.33;;;6.87;;
69008;SDS011;56065;52.472;13.380;2023-12-04T10:13:05;18.73;;;6.07;;
69008;SDS011;56065;52.472;13.380;2023-12-04T10:15:31;17.52;;;6.97;;
69008;SDS011;56065;52.472;13.380;2023-12-04T10:17:57;17.33;;;6.68;;
69008;SDS011;56065;52.472;13.380;2023-12-04T10:20:23;18.60;;;7.23;;
69008;SDS011;56065;52.472;13.380;2023-12-04T10:22:53;19.45;;;7.18;;
69008;SDS011;56065;52.472;13.380;2023-12-04T10:25:20;21.05;;;7.82;;
69008;SDS011;56065;52.472;13.380;2023-12-04T10:27:46;19.70;;;6.73;;
69008;SDS011;56065;52.472;13.380;2023-12-04T10:30:28;17.00;;;6.25;;
69008;SDS011;56065;52.472;13.380;2023-12-04T10:33:01;16.67;;;6.93;;
69008;SDS011;56065;52.472;13.380;2023-12-04T10:35:36;16.55;;;6.13;;
69008;SDS011;56065;52.472;13.380;2023-12-04T10:38:02;19.57;;;7.47;;
69008;SDS011;56065;52.472;13.380;2023-12-04T10:40:29;19.42;;;7.97;;
69008;SDS011;56065;52.472;13.380;2023-12-04T10:43:09;18.40;;;6.07;;
69008;SDS011;56065;52.472;13.380;2023-12-04T10:45:36;20.45;;;8.82;;
69008;SDS011;56065;52.472;13.380;2023-12-04T10:48:03;18.80;;;6.22;;
69008;SDS011;56065;52.472;13.380;2023-12-04T10:50:31;15.17;;;6.17;;
69008;SDS011;56065;52.472;13.380;2023-12-04T10:52:58;17.00;;;5.95;;
69008;SDS011;56065;52.472;13.380;2023-12-04T10:55:26;17.15;;;6.10;;
69008;SDS011;56065;52.472;13.380;2023-12-04T10:57:52;16.03;;;6.17;;
69008;SDS011;56065;52.472;13.380;2023-12-04T11:00:19;18.10;;;6.10;;
69008;SDS011;56065;52.472;13.380;2023-12-04T11:02:46;18.85;;;6.88;;
69008;SDS011;56065;52.472;13.380;2023-12-04T11:05:14;22.08;;;6.13;;
69008;SDS011;56065;52.472;13.380;2023-12-04T11:07:50;17.25;;;6.38;;
69008;SDS011;56065;52.472;13.380;2023-12-04T11:10:20;15.20;;;6.00;;
69008;SDS011;56065;52.472;13.380;2023-12-04T11:12:48;16.38;;;5.95;;
69008;SDS011;56065;52.472;13.380;2023-12-04T11:15:20;20.23;;;6.45;;
69008;SDS011;56065;52.472;13.380;2023-12-04T11:17:49;16.30;;;6.50;;
69008;SDS011;56065;52.472;13.380;2023-12-04T11:20:19;16.85;;;6.35;;
69008;SDS011;56065;52.472;13.380;2023-12-04T11:22:48;15.23;;;5.27;;
69008;SDS011;56065;52.472;13.380;2023-12-04T11:25:15;17.38;;;6.40;;
69008;SDS011;56065;52.472;13.380;2023-12-04T11:27:41;19.05;;;6.78;;
69008;SDS011;56065;52.472;13.380;2023-12-04T11:30:07;16.98;;;5.93;;
69008;SDS011;56065;52.472;13.380;2023-12-04T11:32:43;18.00;;;6.97;;
69008;SDS011;56065;52.472;13.380;2023-12-04T11:35:14;16.52;;;6.68;;
69008;SDS011;56065;52.472;13.380;2023-12-04T11:37:40;16.08;;;6.00;;
69008;SDS011;56065;52.472;13.380;2023-12-04T11:40:07;14.90;;;5.70;;
69008;SDS011;56065;52.472;13.380;2023-12-04T11:42:32;15.35;;;5.95;;
69008;SDS011;56065;52.472;13.380;2023-12-04T11:44:58;15.90;;;6.40;;
69008;SDS011;56065;52.472;13.380;2023-12-04T11:47:23;15.13;;;5.57;;
69008;SDS011;56065;52.472;13.380;2023-12-04T11:49:49;16.30;;;6.18;;
69008;SDS011;56065;52.472;13.380;2023-12-04T11:52:15;17.23;;;6.10;;
69008;SDS011;56065;52.472;13.380;2023-12-04T11:57:21;16.70;;;5.60;;
69008;SDS011;56065;52.472;13.380;2023-12-04T11:59:49;14.05;;;5.68;;
69008;SDS011;56065;52.472;13.380;2023-12-04T12:02:15;17.10;;;6.77;;
69008;SDS011;56065;52.472;13.380;2023-12-04T12:04:40;16.42;;;6.05;;
69008;SDS011;56065;52.472;13.380;2023-12-04T12:07:06;16.47;;;6.50;;
69008;SDS011;56065;52.472;13.380;2023-12-04T12:09:34;13.93;;;5.43;;
69008;SDS011;56065;52.472;13.380;2023-12-04T12:12:01;16.92;;;6.25;;
69008;SDS011;56065;52.472;13.380;2023-12-04T12:14:28;17.70;;;6.38;;
69008;SDS011;56065;52.472;13.380;2023-12-04T12:17:00;14.80;;;6.75;;
69008;SDS011;56065;52.472;13.380;2023-12-04T12:19:26;17.17;;;6.07;;
69008;SDS011;56065;52.472;13.380;2023-12-04T12:21:52;16.42;;;5.80;;
69008;SDS011;56065;52.472;13.380;2023-12-04T12:24:18;15.00;;;5.32;;
69008;SDS011;56065;52.472;13.380;2023-12-04T12:26:44;16.15;;;5.93;;
69008;SDS011;56065;52.472;13.380;2023-12-04T12:29:10;15.63;;;6.35;;
69008;SDS011;56065;52.472;13.380;2023-12-04T12:31:36;14.35;;;5.35;;
69008;SDS011;56065;52.472;13.380;2023-12-04T12:34:01;14.87;;;5.63;;
69008;SDS011;56065;52.472;13.380;2023-12-04T12:36:27;15.02;;;5.72;;
69008;SDS011;56065;52.472;13.380;2023-12-04T12:38:53;18.07;;;5.73;;
69008;SDS011;56065;52.472;13.380;2023-12-04T12:41:19;15.52;;;5.63;;
69008;SDS011;56065;52.472;13.380;2023-12-04T12:43:45;18.93;;;6.00;;
69008;SDS011;56065;52.472;13.380;2023-12-04T12:46:11;19.10;;;5.88;;
69008;SDS011;56065;52.472;13.380;2023-12-04T12:48:36;17.20;;;6.33;;
69008;SDS011;56065;52.472;13.380;2023-12-04T12:51:02;15.63;;;5.40;;
69008;SDS011;56065;52.472;13.380;2023-12-04T12:53:27;15.98;;;6.18;;
69008;SDS011;56065;52.472;13.380;2023-12-04T12:55:53;15.30;;;5.63;;
69008;SDS011;56065;52.472;13.380;2023-12-04T12:58:18;15.50;;;6.50;;
69008;SDS011;56065;52.472;13.380;2023-12-04T13:00:45;16.20;;;6.35;;
69008;SDS011;56065;52.472;13.380;2023-12-04T13:03:18;17.92;;;6.35;;
69008;SDS011;56065;52.472;13.380;2023-12-04T13:05:44;17.58;;;5.85;;
69008;SDS011;56065;52.472;13.380;2023-12-04T13:08:10;16.03;;;6.23;;
69008;SDS011;56065;52.472;13.380;2023-12-04T13:10:40;16.88;;;6.38;;
69008;SDS011;56065;52.472;13.380;2023-12-04T13:13:09;15.43;;;5.95;;
69008;SDS011;56065;52.472;13.380;2023-12-04T13:15:43;17.05;;;5.95;;
69008;SDS011;56065;52.472;13.380;2023-12-04T13:18:09;17.83;;;6.03;;
69008;SDS011;56065;52.472;13.380;2023-12-04T13:20:34;17.17;;;6.82;;
69008;SDS011;56065;52.472;13.380;2023-12-04T13:23:02;19.50;;;6.25;;
69008;SDS011;56065;52.472;13.380;2023-12-04T13:25:28;19.70;;;6.78;;
69008;SDS011;56065;52.472;13.380;2023-12-04T13:27:53;16.93;;;6.33;;
69008;SDS011;56065;52.472;13.380;2023-12-04T13:30:19;17.63;;;6.10;;
69008;SDS011;56065;52.472;13.380;2023-12-04T13:32:45;17.00;;;6.85;;
69008;SDS011;56065;52.472;13.380;2023-12-04T13:35:11;15.90;;;5.63;;
69008;SDS011;56065;52.472;13.380;2023-12-04T13:37:36;18.17;;;6.30;;
69008;SDS011;56065;52.472;13.380;2023-12-04T13:40:04;17.55;;;6.95;;
69008;SDS011;56065;52.472;13.380;2023-12-04T13:42:32;16.87;;;6.37;;
69008;SDS011;56065;52.472;13.380;2023-12-04T13:45:16;18.23;;;6.63;;
69008;SDS011;56065;52.472;13.380;2023-12-04T13:47:41;15.77;;;5.87;;
69008;SDS011;56065;52.472;13.380;2023-12-04T13:50:08;15.45;;;5.70;;
69008;SDS011;56065;52.472;13.380;2023-12-04T13:52:34;17.55;;;7.05;;
69008;SDS011;56065;52.472;13.380;2023-12-04T13:55:00;20.30;;;6.90;;
69008;SDS011;56065;52.472;13.380;2023-12-04T13:57:26;17.80;;;6.03;;
69008;SDS011;56065;52.472;13.380;2023-12-04T13:59:57;16.77;;;6.53;;
69008;SDS011;56065;52.472;13.380;2023-12-04T14:02:22;17.67;;;5.73;;
69008;SDS011;56065;52.472;13.380;2023-12-04T14:04:48;19.40;;;6.70;;
69008;SDS011;56065;52.472;13.380;2023-12-04T14:07:13;15.47;;;6.27;;
69008;SDS011;56065;52.472;13.380;2023-12-04T14:09:39;19.90;;;6.78;;
69008;SDS011;56065;52.472;13.380;2023-12-04T14:12:05;17.23;;;6.25;;